sensor_id;sensor_type;location;lat;lon;timestamp;pressure;altitude;pressure_sealevel;temperature;humidity
39491;BME280;25175;50.140;18.990;2023-11-21T07:25:32;97850.31;;;7.69;70.50
39491;BME280;25175;50.140;18.990;2023-11-21T07:28:38;97852.69;;;7.71;70.95
39491;BME280;25175;50.140;18.990;2023-11-21T07:31:42;97838.88;;;7.64;70.91
39491;BME280;25175;50.140;18.990;2023-11-21T07:34:47;97858.72;;;7.78;70.93
39491;BME280;25175;50.140;18.990;2023-11-21T07:37:52;97860.31;;;7.79;71.03
39491;BME280;25175;50.140;18.990;2023-11-21T07:40:59;97860.72;;;7.82;70.79
39491;BME280;25175;50.140;18.990;2023-11-21T07:44:05;97873.78;;;7.82;71.13
39491;BME280;25175;50.140;18.990;2023-11-21T07:47:11;97867.34;;;7.78;70.69
39491;BME280;25175;50.140;18.990;2023-11-21T07:50:15;97860.72;;;7.82;70.82
39491;BME280;25175;50.140;18.990;2023-11-21T07:53:20;97865.94;;;7.89;70.99
39491;BME280;25175;50.140;18.990;2023-11-21T07:56:28;97871.75;;;7.91;70.93
39491;BME280;25175;50.140;18.990;2023-11-21T07:59:33;97877.56;;;7.93;70.62
39491;BME280;25175;50.140;18.990;2023-11-21T08:02:38;97862.69;;;7.87;70.60
39491;BME280;25175;50.140;18.990;2023-11-21T08:05:44;97880.38;;;7.91;70.39
39491;BME280;25175;50.140;18.990;2023-11-21T08:08:49;97854.69;;;7.82;70.93
39491;BME280;25175;50.140;18.990;2023-11-21T08:11:57;97873.94;;;7.94;70.82
39491;BME280;25175;50.140;18.990;2023-11-21T08:15:01;97885.56;;;7.98;70.75
39491;BME280;25175;50.140;18.990;2023-11-21T08:18:07;97883.56;;;8.00;70.24
39491;BME280;25175;50.140;18.990;2023-11-21T08:21:12;97882.94;;;8.04;70.75
39491;BME280;25175;50.140;18.990;2023-11-21T08:24:17;97877.72;;;7.98;70.88
39491;BME280;25175;50.140;18.990;2023-11-21T08:27:25;97889.56;;;8.13;70.60
39491;BME280;25175;50.140;18.990;2023-11-21T08:30:31;97880.91;;;8.13;70.44
39491;BME280;25175;50.140;18.990;2023-11-21T08:33:36;97878.66;;;8.23;70.15
39491;BME280;25175;50.140;18.990;2023-11-21T08:36:42;97891.91;;;8.28;70.01
39491;BME280;25175;50.140;18.990;2023-11-21T08:39:47;97889.88;;;8.30;70.44
39491;BME280;25175;50.140;18.990;2023-11-21T08:42:57;97900.94;;;8.32;70.09
39491;BME280;25175;50.140;18.990;2023-11-21T08:46:02;97901.53;;;8.34;70.22
39491;BME280;25175;50.140;18.990;2023-11-21T08:49:08;97908.38;;;8.35;69.51
39491;BME280;25175;50.140;18.990;2023-11-21T08:52:12;97901.75;;;8.26;69.91
39491;BME280;25175;50.140;18.990;2023-11-21T08:55:18;97918.44;;;8.31;69.61
39491;BME280;25175;50.140;18.990;2023-11-21T08:58:25;97918.84;;;8.28;69.57
39491;BME280;25175;50.140;18.990;2023-11-21T09:01:31;97918.88;;;8.22;68.31
39491;BME280;25175;50.140;18.990;2023-11-21T09:04:36;97873.16;;;7.87;68.72
39491;BME280;25175;50.140;18.990;2023-11-21T09:07:42;97919.47;;;8.17;69.04
39491;BME280;25175;50.140;18.990;2023-11-21T09:10:47;97910.84;;;8.17;69.19
39491;BME280;25175;50.140;18.990;2023-11-21T09:13:54;97919.47;;;8.17;68.84
39491;BME280;25175;50.140;18.990;2023-11-21T09:16:59;97903.03;;;8.10;69.08
39491;BME280;25175;50.140;18.990;2023-11-21T09:20:05;97916.47;;;8.14;69.20
39491;BME280;25175;50.140;18.990;2023-11-21T09:23:12;97914.69;;;8.14;69.49
39491;BME280;25175;50.140;18.990;2023-11-21T09:26:17;97909.25;;;8.16;69.50
39491;BME280;25175;50.140;18.990;2023-11-21T09:29:24;97905.44;;;8.05;69.51
39491;BME280;25175;50.140;18.990;2023-11-21T09:32:30;97911.47;;;8.12;69.33
39491;BME280;25175;50.140;18.990;2023-11-21T09:35:37;97916.47;;;8.14;69.58
39491;BME280;25175;50.140;18.990;2023-11-21T09:38:42;97911.88;;;8.16;69.30
39491;BME280;25175;50.140;18.990;2023-11-21T09:41:51;97902.00;;;8.18;69.01
39491;BME280;25175;50.140;18.990;2023-11-21T09:45:08;97907.81;;;8.20;68.78
39491;BME280;25175;50.140;18.990;2023-11-21T09:48:22;97906.41;;;8.17;69.09
39491;BME280;25175;50.140;18.990;2023-11-21T09:51:31;97905.00;;;8.21;69.19
39491;BME280;25175;50.140;18.990;2023-11-21T09:54:39;97893.97;;;8.19;69.04
39491;BME280;25175;50.140;18.990;2023-11-21T09:57:48;97899.94;;;8.33;69.35
39491;BME280;25175;50.140;18.990;2023-11-21T10:00:57;97905.75;;;8.35;68.49
39491;BME280;25175;50.140;18.990;2023-11-21T10:04:09;97899.56;;;8.23;67.85
39491;BME280;25175;50.140;18.990;2023-11-21T10:07:17;97901.16;;;8.30;68.05
39491;BME280;25175;50.140;18.990;2023-11-21T10:10:25;97911.78;;;8.35;67.08
39491;BME280;25175;50.140;18.990;2023-11-21T10:13:32;97913.19;;;8.38;67.16
39491;BME280;25175;50.140;18.990;2023-11-21T10:16:41;97915.38;;;8.41;67.91
39491;BME280;25175;50.140;18.990;2023-11-21T10:19:50;97907.50;;;8.47;67.59
39491;BME280;25175;50.140;18.990;2023-11-21T10:22:55;97912.91;;;8.59;68.18
39491;BME280;25175;50.140;18.990;2023-11-21T10:26:01;97898.22;;;8.58;65.77
39491;BME280;25175;50.140;18.990;2023-11-21T10:29:08;97907.84;;;8.64;65.53
39491;BME280;25175;50.140;18.990;2023-11-21T10:32:20;97915.50;;;8.65;64.97
39491;BME280;25175;50.140;18.990;2023-11-21T10:35:38;97912.28;;;8.63;64.97
39491;BME280;25175;50.140;18.990;2023-11-21T10:38:49;97902.84;;;8.62;64.81
39491;BME280;25175;50.140;18.990;2023-11-21T10:41:55;97897.81;;;8.61;64.56
39491;BME280;25175;50.140;18.990;2023-11-21T10:44:59;97887.56;;;8.53;65.35
39491;BME280;25175;50.140;18.990;2023-11-21T10:48:12;97879.16;;;8.44;64.81
39491;BME280;25175;50.140;18.990;2023-11-21T10:51:20;97904.88;;;8.54;64.08
39491;BME280;25175;50.140;18.990;2023-11-21T10:54:26;97906.28;;;8.50;64.36
39491;BME280;25175;50.140;18.990;2023-11-21T10:57:31;97901.66;;;8.45;64.19
39491;BME280;25175;50.140;18.990;2023-11-21T11:00:38;97877.06;;;8.22;64.79
39491;BME280;25175;50.140;18.990;2023-11-21T11:03:47;97904.91;;;8.41;65.08
39491;BME280;25175;50.140;18.990;2023-11-21T11:07:00;97906.13;;;8.38;65.36
39491;BME280;25175;50.140;18.990;2023-11-21T11:10:09;97914.41;;;8.35;65.34
39491;BME280;25175;50.140;18.990;2023-11-21T11:13:17;97909.97;;;8.36;65.88
39491;BME280;25175;50.140;18.990;2023-11-21T11:16:24;97909.97;;;8.36;66.04
39491;BME280;25175;50.140;18.990;2023-11-21T11:19:35;97907.16;;;8.37;65.81
39491;BME280;25175;50.140;18.990;2023-11-21T11:22:50;97901.72;;;8.39;65.48
39491;BME280;25175;50.140;18.990;2023-11-21T11:26:12;97917.59;;;8.37;65.09
39491;BME280;25175;50.140;18.990;2023-11-21T11:29:38;97893.13;;;8.32;65.77
39491;BME280;25175;50.140;18.990;2023-11-21T11:32:58;97907.59;;;8.34;66.43
39491;BME280;25175;50.140;18.990;2023-11-21T11:36:18;97900.72;;;8.33;66.02
39491;BME280;25175;50.140;18.990;2023-11-21T11:39:31;97912.13;;;8.45;66.54
39491;BME280;25175;50.140;18.990;2023-11-21T11:42:39;97917.78;;;8.49;65.69
39491;BME280;25175;50.140;18.990;2023-11-21T11:46:03;97917.34;;;8.52;66.08
39491;BME280;25175;50.140;18.990;2023-11-21T11:49:09;97917.53;;;8.57;65.52
39491;BME280;25175;50.140;18.990;2023-11-21T11:52:34;97920.34;;;8.62;65.92
39491;BME280;25175;50.140;18.990;2023-11-21T11:55:44;97918.53;;;8.62;64.77
39491;BME280;25175;50.140;18.990;2023-11-21T11:58:50;97924.75;;;8.61;64.03
39491;BME280;25175;50.140;18.990;2023-11-21T12:01:57;97925.56;;;8.62;64.10
39491;BME280;25175;50.140;18.990;2023-11-21T12:05:09;97868.19;;;8.29;64.57
39491;BME280;25175;50.140;18.990;2023-11-21T12:08:17;97917.34;;;8.58;64.64
39491;BME280;25175;50.140;18.990;2023-11-21T12:11:30;97924.78;;;8.55;64.38
39491;BME280;25175;50.140;18.990;2023-11-21T12:14:36;97908.53;;;8.40;64.87
39491;BME280;25175;50.140;18.990;2023-11-21T12:17:43;97928.59;;;8.52;64.53
39491;BME280;25175;50.140;18.990;2023-11-21T12:20:48;97923.19;;;8.54;64.91
39491;BME280;25175;50.140;18.990;2023-11-21T12:23:56;97927.19;;;8.56;65.48
39491;BME280;25175;50.140;18.990;2023-11-21T12:27:01;97925.38;;;8.57;64.80
39491;BME280;25175;50.140;18.990;2023-11-21T12:30:07;97917.72;;;8.55;64.64
39491;BME280;25175;50.140;18.990;2023-11-21T12:33:14;97927.59;;;8.53;64.66
39491;BME280;25175;50.140;18.990;2023-11-21T12:36:21;97928.41;;;8.54;64.98
39491;BME280;25175;50.140;18.990;2023-11-21T12:39:29;97937.47;;;8.51;65.45
39491;BME280;25175;50.140;18.990;2023-11-21T12:42:35;97930.41;;;8.52;64.89
39491;BME280;25175;50.140;18.990;2023-11-21T12:45:39;97903.50;;;8.38;65.50
39491;BME280;25175;50.140;18.990;2023-11-21T12:48:46;97923.00;;;8.49;65.04
39491;BME280;25175;50.140;18.990;2023-11-21T12:51:51;97930.00;;;8.55;64.95
39491;BME280;25175;50.140;18.990;2023-11-21T12:54:59;97924.16;;;8.53;64.65
39491;BME280;25175;50.140;18.990;2023-11-21T12:58:05;97930.41;;;8.52;64.89
39491;BME280;25175;50.140;18.990;2023-11-21T13:01:14;97904.16;;;8.34;64.40
39491;BME280;25175;50.140;18.990;2023-11-21T13:04:20;97929.25;;;8.41;64.67
39491;BME280;25175;50.140;18.990;2023-11-21T13:07:25;97920.03;;;8.32;64.76
39491;BME280;25175;50.140;18.990;2023-11-21T13:10:33;97954.00;;;8.39;64.89
39491;BME280;25175;50.140;18.990;2023-11-21T13:13:41;97941.72;;;8.39;65.12
39491;BME280;25175;50.140;18.990;2023-11-21T13:16:47;97938.91;;;8.41;65.62
39491;BME280;25175;50.140;18.990;2023-11-21T13:19:53;97936.47;;;8.46;66.15
39491;BME280;25175;50.140;18.990;2023-11-21T13:22:59;97913.84;;;8.27;65.64
39491;BME280;25175;50.140;18.990;2023-11-21T13:26:10;97934.44;;;8.48;65.63
39491;BME280;25175;50.140;18.990;2023-11-21T13:29:15;97946.47;;;8.55;65.96
39491;BME280;25175;50.140;18.990;2023-11-21T13:32:22;97950.72;;;8.56;65.60
39491;BME280;25175;50.140;18.990;2023-11-21T13:35:27;97949.31;;;8.54;64.67
39491;BME280;25175;50.140;18.990;2023-11-21T13:38:40;97947.31;;;8.49;65.48
39491;BME280;25175;50.140;18.990;2023-11-21T13:41:49;97959.81;;;8.47;65.29
39491;BME280;25175;50.140;18.990;2023-11-21T13:44:56;97958.41;;;8.45;65.20
39491;BME280;25175;50.140;18.990;2023-11-21T13:48:01;97951.97;;;8.41;65.08
39491;BME280;25175;50.140;18.990;2023-11-21T13:51:09;97958.03;;;8.35;65.09
39491;BME280;25175;50.140;18.990;2023-11-21T13:54:18;97955.22;;;8.30;65.26
39491;BME280;25175;50.140;18.990;2023-11-21T13:57:28;97952.22;;;8.26;65.68
39491;BME280;25175;50.140;18.990;2023-11-21T14:00:33;97955.66;;;8.27;65.52
39491;BME280;25175;50.140;18.990;2023-11-21T14:03:46;97942.59;;;8.20;65.62
39491;BME280;25175;50.140;18.990;2023-11-21T14:06:57;97938.59;;;8.18;65.64
39491;BME280;25175;50.140;18.990;2023-11-21T14:10:13;97958.28;;;8.20;66.00
39491;BME280;25175;50.140;18.990;2023-11-21T14:13:25;97947.00;;;8.20;65.68
39491;BME280;25175;50.140;18.990;2023-11-21T14:16:31;97949.84;;;8.18;65.66
39491;BME280;25175;50.140;18.990;2023-11-21T14:19:36;97958.09;;;8.15;65.74
39491;BME280;25175;50.140;18.990;2023-11-21T14:22:44;97956.69;;;8.13;65.60
39491;BME280;25175;50.140;18.990;2023-11-21T14:25:49;97958.72;;;8.11;65.39
39491;BME280;25175;50.140;18.990;2023-11-21T14:28:57;97966.94;;;8.08;65.99
39491;BME280;25175;50.140;18.990;2023-11-21T14:32:02;97968.34;;;8.10;66.17
39491;BME280;25175;50.140;18.990;2023-11-21T14:35:08;97963.94;;;8.11;66.06
39491;BME280;25175;50.140;18.990;2023-11-21T14:38:13;97962.53;;;8.08;65.86
39491;BME280;25175;50.140;18.990;2023-11-21T14:41:18;97980.00;;;8.08;66.39
39491;BME280;25175;50.140;18.990;2023-11-21T14:44:25;97969.78;;;8.00;66.58
39491;BME280;25175;50.140;18.990;2023-11-21T14:47:34;97978.59;;;8.05;66.78
39491;BME280;25175;50.140;18.990;2023-11-21T14:50:43;97977.19;;;8.09;66.77
39491;BME280;25175;50.140;18.990;2023-11-21T14:54:13;97978.81;;;8.10;66.82
39491;BME280;25175;50.140;18.990;2023-11-21T14:57:16;97990.84;;;8.11;67.08
39491;BME280;25175;50.140;18.990;2023-11-21T15:00:25;97983.00;;;8.11;67.49
39491;BME280;25175;50.140;18.990;2023-11-21T15:03:45;97979.41;;;8.06;67.63
39491;BME280;25175;50.140;18.990;2023-11-21T15:06:51;97983.44;;;8.02;67.46
39491;BME280;25175;50.140;18.990;2023-11-21T15:09:54;97988.03;;;8.13;67.50
39491;BME280;25175;50.140;18.990;2023-11-21T15:13:00;97988.47;;;8.10;67.69
39491;BME280;25175;50.140;18.990;2023-11-21T15:16:07;97980.81;;;8.02;67.89
39491;BME280;25175;50.140;18.990;2023-11-21T15:19:14;97994.69;;;8.09;68.08
39491;BME280;25175;50.140;18.990;2023-11-21T15:22:20;97996.91;;;8.05;68.25
39491;BME280;25175;50.140;18.990;2023-11-21T15:25:25;97982.47;;;7.96;68.58
39491;BME280;25175;50.140;18.990;2023-11-21T15:28:29;98005.75;;;8.04;68.73
39491;BME280;25175;50.140;18.990;2023-11-21T15:31:37;98004.72;;;8.05;68.89
39491;BME280;25175;50.140;18.990;2023-11-21T15:34:47;98006.94;;;8.08;68.83
39491;BME280;25175;50.140;18.990;2023-11-21T15:37:52;98002.50;;;8.09;69.00
39491;BME280;25175;50.140;18.990;2023-11-21T15:40:58;97991.88;;;8.10;69.00
39491;BME280;25175;50.140;18.990;2023-11-21T15:44:05;98005.75;;;8.11;68.88
39491;BME280;25175;50.140;18.990;2023-11-21T15:47:15;98008.56;;;8.16;69.21
39491;BME280;25175;50.140;18.990;2023-11-21T15:50:20;97994.09;;;8.13;68.93
39491;BME280;25175;50.140;18.990;2023-11-21T15:53:25;98014.56;;;8.23;68.97
39491;BME280;25175;50.140;18.990;2023-11-21T15:56:30;98007.13;;;8.20;68.80
39491;BME280;25175;50.140;18.990;2023-11-21T15:59:35;98024.19;;;8.29;68.76
39491;BME280;25175;50.140;18.990;2023-11-21T16:02:43;98019.56;;;8.31;68.62
39491;BME280;25175;50.140;18.990;2023-11-21T16:05:48;98018.34;;;8.33;68.44
39491;BME280;25175;50.140;18.990;2023-11-21T16:08:54;98018.97;;;8.35;68.49
39491;BME280;25175;50.140;18.990;2023-11-21T16:12:02;98033.22;;;8.39;68.49
39491;BME280;25175;50.140;18.990;2023-11-21T16:15:10;98036.44;;;8.41;68.29
39491;BME280;25175;50.140;18.990;2023-11-21T16:18:17;98032.63;;;8.37;68.59
39491;BME280;25175;50.140;18.990;2023-11-21T16:21:23;98053.16;;;8.40;68.60
39491;BME280;25175;50.140;18.990;2023-11-21T16:24:27;98045.50;;;8.39;68.68
39491;BME280;25175;50.140;18.990;2023-11-21T16:27:35;98045.88;;;8.36;68.95
39491;BME280;25175;50.140;18.990;2023-11-21T16:30:40;98057.34;;;8.35;68.72
39491;BME280;25175;50.140;18.990;2023-11-21T16:33:49;98055.38;;;8.30;69.00
39491;BME280;25175;50.140;18.990;2023-11-21T16:36:56;98053.97;;;8.28;69.13
39491;BME280;25175;50.140;18.990;2023-11-21T16:40:01;98044.72;;;8.19;69.31
39491;BME280;25175;50.140;18.990;2023-11-21T16:43:10;98053.78;;;8.23;69.55
39491;BME280;25175;50.140;18.990;2023-11-21T16:46:15;98067.22;;;8.20;69.32
39491;BME280;25175;50.140;18.990;2023-11-21T16:49:23;98072.69;;;8.18;69.65
39491;BME280;25175;50.140;18.990;2023-11-21T16:52:30;98076.50;;;8.16;69.57
39491;BME280;25175;50.140;18.990;2023-11-21T16:55:35;98077.47;;;8.15;69.69
39491;BME280;25175;50.140;18.990;2023-11-21T16:58:40;98081.72;;;8.09;69.82
39491;BME280;25175;50.140;18.990;2023-11-21T17:01:45;98080.13;;;8.08;70.29
39491;BME280;25175;50.140;18.990;2023-11-21T17:04:53;98073.28;;;8.01;70.30
39491;BME280;25175;50.140;18.990;2023-11-21T17:07:59;98097.00;;;8.06;70.53
39491;BME280;25175;50.140;18.990;2023-11-21T17:11:04;98075.91;;;8.07;70.52
39491;BME280;25175;50.140;18.990;2023-11-21T17:14:14;98091.16;;;8.10;70.18
39491;BME280;25175;50.140;18.990;2023-11-21T17:17:22;98090.75;;;8.07;70.28
39491;BME280;25175;50.140;18.990;2023-11-21T17:20:30;98097.38;;;8.03;70.55
39491;BME280;25175;50.140;18.990;2023-11-21T17:23:36;98092.56;;;8.00;70.65
39491;BME280;25175;50.140;18.990;2023-11-21T17:26:42;98094.19;;;8.01;70.80
39491;BME280;25175;50.140;18.990;2023-11-21T17:29:48;98106.03;;;7.97;70.79
39491;BME280;25175;50.140;18.990;2023-11-21T17:32:52;98116.06;;;7.93;71.00
39491;BME280;25175;50.140;18.990;2023-11-21T17:36:02;98122.28;;;7.86;71.07
39491;BME280;25175;50.140;18.990;2023-11-21T17:39:08;98119.66;;;7.66;70.35
39491;BME280;25175;50.140;18.990;2023-11-21T17:42:14;98124.81;;;7.47;70.29
39491;BME280;25175;50.140;18.990;2023-11-21T17:45:20;98121.97;;;7.29;70.56
39491;BME280;25175;50.140;18.990;2023-11-21T17:48:27;98134.50;;;7.12;70.41
39491;BME280;25175;50.140;18.990;2023-11-21T17:51:37;98135.28;;;7.00;70.67
39491;BME280;25175;50.140;18.990;2023-11-21T17:54:43;98145.03;;;6.85;70.67
39491;BME280;25175;50.140;18.990;2023-11-21T17:57:48;98148.16;;;6.74;70.67
39491;BME280;25175;50.140;18.990;2023-11-21T18:00:53;98142.06;;;6.60;70.76
39491;BME280;25175;50.140;18.990;2023-11-21T18:03:58;98149.28;;;6.58;70.67
39491;BME280;25175;50.140;18.990;2023-11-21T18:07:06;98159.00;;;6.50;70.89
39491;BME280;25175;50.140;18.990;2023-11-21T18:10:11;98170.59;;;6.41;71.06
39491;BME280;25175;50.140;18.990;2023-11-21T18:13:17;98165.91;;;6.30;70.09
39491;BME280;25175;50.140;18.990;2023-11-21T18:16:23;98165.97;;;6.15;69.84
39491;BME280;25175;50.140;18.990;2023-11-21T18:19:28;98164.16;;;5.95;69.34
39491;BME280;25175;50.140;18.990;2023-11-21T18:22:36;98153.94;;;5.72;69.71
39491;BME280;25175;50.140;18.990;2023-11-21T18:25:41;98172.72;;;5.68;69.99
39491;BME280;25175;50.140;18.990;2023-11-21T18:28:47;98182.16;;;5.54;69.92
39491;BME280;25175;50.140;18.990;2023-11-21T18:31:54;98176.34;;;5.38;69.93
39491;BME280;25175;50.140;18.990;2023-11-21T18:34:59;98191.06;;;5.31;69.85
39491;BME280;25175;50.140;18.990;2023-11-21T18:38:09;98196.91;;;5.18;70.02
39491;BME280;25175;50.140;18.990;2023-11-21T18:41:20;98193.97;;;5.07;70.09
39491;BME280;25175;50.140;18.990;2023-11-21T18:44:25;98197.25;;;5.01;70.01
39491;BME280;25175;50.140;18.990;2023-11-21T18:47:31;98210.03;;;4.96;70.17
39491;BME280;25175;50.140;18.990;2023-11-21T18:50:39;98212.88;;;4.86;69.83
39491;BME280;25175;50.140;18.990;2023-11-21T18:53:48;98214.91;;;4.76;69.74
39491;BME280;25175;50.140;18.990;2023-11-21T18:56:54;98224.56;;;4.68;70.11
39491;BME280;25175;50.140;18.990;2023-11-21T19:00:03;98221.53;;;4.64;69.93
39491;BME280;25175;50.140;18.990;2023-11-21T19:03:15;98232.81;;;4.57;69.85
39491;BME280;25175;50.140;18.990;2023-11-21T19:06:22;98224.19;;;4.42;69.39
39491;BME280;25175;50.140;18.990;2023-11-21T19:09:32;98224.69;;;4.37;70.00
39491;BME280;25175;50.140;18.990;2023-11-21T19:12:43;98247.91;;;4.39;69.66
39491;BME280;25175;50.140;18.990;2023-11-21T19:15:52;98246.81;;;4.33;69.55
39491;BME280;25175;50.140;18.990;2023-11-21T19:18:56;98248.66;;;4.25;69.80
39491;BME280;25175;50.140;18.990;2023-11-21T19:22:05;98252.22;;;4.24;69.81
39491;BME280;25175;50.140;18.990;2023-11-21T19:25:13;98263.50;;;4.16;69.99
39491;BME280;25175;50.140;18.990;2023-11-21T19:28:20;98276.47;;;4.16;69.69
39491;BME280;25175;50.140;18.990;2023-11-21T19:31:27;98289.50;;;4.08;70.12
39491;BME280;25175;50.140;18.990;2023-11-21T19:34:35;98213.03;;;3.58;69.88
39491;BME280;25175;50.140;18.990;2023-11-21T19:37:40;98294.56;;;4.02;69.88
39491;BME280;25175;50.140;18.990;2023-11-21T19:40:48;98304.16;;;4.01;69.61
39491;BME280;25175;50.140;18.990;2023-11-21T19:43:55;98302.41;;;3.94;69.22
39491;BME280;25175;50.140;18.990;2023-11-21T19:47:03;98318.97;;;3.93;69.04
39491;BME280;25175;50.140;18.990;2023-11-21T19:50:09;98315.72;;;3.91;69.51
39491;BME280;25175;50.140;18.990;2023-11-21T19:53:17;98317.34;;;3.92;68.78
39491;BME280;25175;50.140;18.990;2023-11-21T19:56:25;98322.69;;;3.90;68.78
39491;BME280;25175;50.140;18.990;2023-11-21T19:59:33;98321.13;;;3.73;68.51
39491;BME280;25175;50.140;18.990;2023-11-21T20:02:44;98299.97;;;3.54;68.24
39491;BME280;25175;50.140;18.990;2023-11-21T20:05:51;98341.75;;;3.67;67.97
39491;BME280;25175;50.140;18.990;2023-11-21T20:08:55;98345.16;;;3.59;68.17
39491;BME280;25175;50.140;18.990;2023-11-21T20:12:08;98360.09;;;3.49;68.13
39491;BME280;25175;50.140;18.990;2023-11-21T20:15:13;98362.56;;;3.43;68.71
39491;BME280;25175;50.140;18.990;2023-11-21T20:18:20;98370.84;;;3.30;68.28
39491;BME280;25175;50.140;18.990;2023-11-21T20:21:24;98368.09;;;3.24;68.58
39491;BME280;25175;50.140;18.990;2023-11-21T20:24:30;98390.31;;;3.26;68.49
39491;BME280;25175;50.140;18.990;2023-11-21T20:27:41;98398.41;;;3.23;68.78
39491;BME280;25175;50.140;18.990;2023-11-21T20:30:49;98367.78;;;3.03;68.65
39491;BME280;25175;50.140;18.990;2023-11-21T20:33:54;98399.06;;;3.17;68.35
39491;BME280;25175;50.140;18.990;2023-11-21T20:36:59;98399.72;;;3.11;68.20
39491;BME280;25175;50.140;18.990;2023-11-21T20:40:05;98414.97;;;3.06;68.15
39491;BME280;25175;50.140;18.990;2023-11-21T20:43:16;98411.84;;;3.03;69.10
39491;BME280;25175;50.140;18.990;2023-11-21T20:46:20;98427.41;;;3.03;68.72
39491;BME280;25175;50.140;18.990;2023-11-21T20:49:26;98429.34;;;3.01;68.72
39491;BME280;25175;50.140;18.990;2023-11-21T20:52:32;98434.88;;;2.98;68.54
39491;BME280;25175;50.140;18.990;2023-11-21T20:55:38;98433.22;;;2.97;68.41
39491;BME280;25175;50.140;18.990;2023-11-21T20:58:46;98452.69;;;2.93;68.55
39491;BME280;25175;50.140;18.990;2023-11-21T21:01:51;98444.09;;;2.84;68.18
39491;BME280;25175;50.140;18.990;2023-11-21T21:05:00;98447.94;;;2.72;68.14
39491;BME280;25175;50.140;18.990;2023-11-21T21:08:11;98424.78;;;2.63;68.37
39491;BME280;25175;50.140;18.990;2023-11-21T21:11:20;98459.94;;;2.73;68.57
39491;BME280;25175;50.140;18.990;2023-11-21T21:14:31;98472.72;;;2.75;68.73
39491;BME280;25175;50.140;18.990;2023-11-21T21:17:37;98487.78;;;2.71;68.74
39491;BME280;25175;50.140;18.990;2023-11-21T21:20:44;98474.66;;;2.65;68.72
39491;BME280;25175;50.140;18.990;2023-11-21T21:23:50;98498.28;;;2.62;68.71
39491;BME280;25175;50.140;18.990;2023-11-21T21:26:56;98494.03;;;2.53;67.99
39491;BME280;25175;50.140;18.990;2023-11-21T21:30:05;98410.34;;;1.95;68.51
39491;BME280;25175;50.140;18.990;2023-11-21T21:33:12;98507.25;;;2.42;68.23
39491;BME280;25175;50.140;18.990;2023-11-21T21:36:17;98521.81;;;2.35;68.21
39491;BME280;25175;50.140;18.990;2023-11-21T21:39:24;98482.16;;;2.01;68.29
39491;BME280;25175;50.140;18.990;2023-11-21T21:42:29;98529.84;;;2.24;67.97
39491;BME280;25175;50.140;18.990;2023-11-21T21:45:37;98536.13;;;2.21;68.25
39491;BME280;25175;50.140;18.990;2023-11-21T21:48:44;98546.81;;;2.18;67.97
39491;BME280;25175;50.140;18.990;2023-11-21T21:51:49;98546.47;;;2.13;67.69
39491;BME280;25175;50.140;18.990;2023-11-21T21:54:54;98561.78;;;2.07;67.85
39491;BME280;25175;50.140;18.990;2023-11-21T21:57:59;98563.22;;;2.01;67.83
39491;BME280;25175;50.140;18.990;2023-11-21T22:01:08;98542.59;;;1.92;67.83
39491;BME280;25175;50.140;18.990;2023-11-21T22:04:14;98553.16;;;1.98;68.33
39491;BME280;25175;50.140;18.990;2023-11-21T22:07:18;98562.06;;;2.04;68.13
39491;BME280;25175;50.140;18.990;2023-11-21T22:10:24;98561.91;;;2.05;67.65
39491;BME280;25175;50.140;18.990;2023-11-21T22:13:29;98570.78;;;2.03;68.19
39491;BME280;25175;50.140;18.990;2023-11-21T22:16:37;98564.59;;;1.96;67.81
39491;BME280;25175;50.140;18.990;2023-11-21T22:19:41;98567.25;;;2.04;67.71
39491;BME280;25175;50.140;18.990;2023-11-21T22:22:47;98586.78;;;1.98;67.66
39491;BME280;25175;50.140;18.990;2023-11-21T22:25:52;98566.56;;;1.76;67.70
39491;BME280;25175;50.140;18.990;2023-11-21T22:28:58;98583.34;;;1.72;67.57
39491;BME280;25175;50.140;18.990;2023-11-21T22:32:05;98596.28;;;1.72;67.91
39491;BME280;25175;50.140;18.990;2023-11-21T22:35:11;98605.31;;;1.68;67.66
39491;BME280;25175;50.140;18.990;2023-11-21T22:38:15;98609.94;;;1.65;68.22
39491;BME280;25175;50.140;18.990;2023-11-21T22:41:24;98608.31;;;1.64;68.42
39491;BME280;25175;50.140;18.990;2023-11-21T22:44:29;98616.22;;;1.62;68.58
39491;BME280;25175;50.140;18.990;2023-11-21T22:47:37;98621.25;;;1.64;68.62
39491;BME280;25175;50.140;18.990;2023-11-21T22:50:42;98625.78;;;1.62;68.12
39491;BME280;25175;50.140;18.990;2023-11-21T22:53:49;98636.25;;;1.60;68.12
39491;BME280;25175;50.140;18.990;2023-11-21T22:56:55;98631.91;;;1.61;68.30
39491;BME280;25175;50.140;18.990;2023-11-21T23:00:02;98627.69;;;1.60;68.12
39491;BME280;25175;50.140;18.990;2023-11-21T23:03:15;98618.25;;;1.51;68.27
39491;BME280;25175;50.140;18.990;2023-11-21T23:06:21;98634.13;;;1.56;68.30
39491;BME280;25175;50.140;18.990;2023-11-21T23:09:25;98636.19;;;1.52;68.31
39491;BME280;25175;50.140;18.990;2023-11-21T23:12:31;98636.34;;;1.51;68.53
39491;BME280;25175;50.140;18.990;2023-11-21T23:15:37;98654.31;;;1.52;68.44
39491;BME280;25175;50.140;18.990;2023-11-21T23:18:46;98651.84;;;1.51;68.75
39491;BME280;25175;50.140;18.990;2023-11-21T23:21:53;98655.53;;;1.48;68.54
39491;BME280;25175;50.140;18.990;2023-11-21T23:24:58;98654.72;;;1.48;68.63
39491;BME280;25175;50.140;18.990;2023-11-21T23:28:03;98661.44;;;1.41;68.61
39491;BME280;25175;50.140;18.990;2023-11-21T23:31:09;98662.97;;;1.34;68.60
39491;BME280;25175;50.140;18.990;2023-11-21T23:34:16;98657.41;;;1.29;68.81
39491;BME280;25175;50.140;18.990;2023-11-21T23:37:22;98660.44;;;1.24;68.88
39491;BME280;25175;50.140;18.990;2023-11-21T23:40:26;98668.91;;;1.17;69.07
39491;BME280;25175;50.140;18.990;2023-11-21T23:43:31;98684.25;;;1.18;69.02
39491;BME280;25175;50.140;18.990;2023-11-21T23:46:36;98680.72;;;1.19;68.73
39491;BME280;25175;50.140;18.990;2023-11-21T23:49:46;98625.19;;;0.79;68.93
39491;BME280;25175;50.140;18.990;2023-11-21T23:52:51;98689.72;;;1.15;68.95
39491;BME280;25175;50.140;18.990;2023-11-21T23:55:56;98687.28;;;1.14;68.67